createdAt,value
2022-12-01T00:01:58.116Z,6.93
2022-12-01T00:04:24.848Z,6.93
2022-12-01T00:06:51.395Z,6.94
2022-12-01T00:09:20.108Z,6.91
2022-12-01T00:11:48.203Z,6.94
2022-12-01T00:14:16.004Z,6.91
2022-12-01T00:16:42.755Z,6.92
2022-12-01T00:19:09.499Z,6.91
2022-12-01T00:21:36.106Z,6.90
2022-12-01T00:24:02.689Z,6.86
2022-12-01T00:26:30.746Z,6.85
2022-12-01T00:28:59.167Z,6.86
2022-12-01T00:31:26.900Z,6.87
2022-12-01T00:33:54.967Z,6.86
2022-12-01T00:36:22.780Z,6.83
2022-12-01T00:38:52.169Z,6.81
2022-12-01T00:41:18.738Z,6.80
2022-12-01T00:43:46.848Z,6.81
2022-12-01T00:46:13.434Z,6.78
2022-12-01T00:48:40.240Z,6.82
2022-12-01T00:51:07.046Z,6.80
2022-12-01T00:53:33.563Z,6.76
2022-12-01T00:56:00.164Z,6.76
2022-12-01T00:58:26.761Z,6.75
2022-12-01T01:01:00.672Z,6.76
2022-12-01T01:03:27.224Z,6.80
2022-12-01T01:05:54.197Z,6.77
2022-12-01T01:08:21.217Z,6.76
2022-12-01T01:10:48.692Z,6.74
2022-12-01T01:13:15.439Z,6.71
2022-12-01T01:15:42.071Z,6.70
2022-12-01T01:18:12.006Z,6.72
2022-12-01T01:20:38.980Z,6.70
2022-12-01T01:23:05.673Z,6.67
2022-12-01T01:25:32.841Z,6.66
2022-12-01T01:27:59.552Z,6.67
2022-12-01T01:30:26.477Z,6.66
2022-12-01T01:32:53.042Z,6.67
2022-12-01T01:35:20.967Z,6.67
2022-12-01T01:37:47.853Z,6.64
2022-12-01T01:40:14.662Z,6.64
2022-12-01T01:42:41.192Z,6.63
2022-12-01T01:45:19.721Z,6.64
2022-12-01T01:47:46.912Z,6.62
2022-12-01T01:50:15.948Z,6.63
2022-12-01T01:52:48.165Z,6.63
2022-12-01T01:55:15.509Z,6.62
2022-12-01T01:57:43.266Z,6.61
2022-12-01T02:00:12.400Z,6.61
2022-12-01T02:02:41.073Z,6.56
2022-12-01T02:05:11.797Z,6.56
2022-12-01T02:07:40.318Z,6.58
2022-12-01T02:10:13.019Z,6.56
2022-12-01T02:12:53.614Z,6.60
2022-12-01T02:15:28.624Z,6.57
2022-12-01T02:18:08.077Z,6.59
2022-12-01T02:21:11.802Z,6.61
2022-12-01T02:24:24.341Z,6.61
2022-12-01T02:26:55.482Z,6.61
2022-12-01T02:29:56.520Z,6.62
2022-12-01T02:32:31.440Z,6.61
2022-12-01T02:35:03.333Z,6.59
2022-12-01T02:37:33.743Z,6.58
2022-12-01T02:40:09.831Z,6.58
2022-12-01T02:42:42.908Z,6.59
2022-12-01T02:45:13.725Z,6.58
2022-12-01T02:47:43.957Z,6.59
2022-12-01T02:50:12.591Z,6.59
2022-12-01T02:52:40.978Z,6.57
2022-12-01T02:55:08.443Z,6.57
2022-12-01T02:57:35.034Z,6.61
2022-12-01T03:00:04.644Z,6.58
2022-12-01T03:02:39.792Z,6.60
2022-12-01T03:05:14.609Z,6.62
2022-12-01T03:07:51.448Z,6.61
2022-12-01T03:10:23.950Z,6.61
2022-12-01T03:13:02.318Z,6.65
2022-12-01T03:15:36.445Z,6.59
2022-12-01T03:18:10.041Z,6.64
2022-12-01T03:20:42.424Z,6.60
2022-12-01T03:23:12.993Z,6.60
2022-12-01T03:25:43.239Z,6.57
2022-12-01T03:28:21.109Z,6.59
2022-12-01T03:30:51.944Z,6.59
2022-12-01T03:33:25.552Z,6.58
2022-12-01T03:35:58.881Z,6.57
2022-12-01T03:38:27.122Z,6.60
2022-12-01T03:40:58.587Z,6.60
2022-12-01T03:43:29.195Z,6.61
2022-12-01T03:46:02.934Z,6.59
2022-12-01T03:48:30.857Z,6.59
2022-12-01T03:51:09.874Z,6.61
2022-12-01T03:53:46.794Z,6.60
2022-12-01T03:56:15.133Z,6.58
2022-12-01T03:58:45.193Z,6.62
2022-12-01T04:01:12.336Z,6.59
2022-12-01T04:03:38.860Z,6.58
2022-12-01T04:06:07.819Z,6.61
2022-12-01T04:08:34.745Z,6.59
2022-12-01T04:11:01.341Z,6.61
2022-12-01T04:13:27.916Z,6.60
2022-12-01T04:15:55.171Z,6.60
2022-12-01T04:18:22.046Z,6.59
2022-12-01T04:20:49.726Z,6.61
2022-12-01T04:23:17.597Z,6.59
2022-12-01T04:25:44.279Z,6.56
2022-12-01T04:28:10.906Z,6.61
2022-12-01T04:30:38.284Z,6.62
2022-12-01T04:33:04.880Z,6.58
2022-12-01T04:35:31.421Z,6.59
2022-12-01T04:37:57.930Z,6.58
2022-12-01T04:40:25.924Z,6.58
2022-12-01T04:42:52.498Z,6.59
2022-12-01T04:45:19.134Z,6.61
2022-12-01T04:47:45.720Z,6.60
2022-12-01T04:50:12.409Z,6.60
2022-12-01T04:52:38.907Z,6.62
2022-12-01T04:55:06.550Z,6.63
2022-12-01T04:57:34.614Z,6.62
2022-12-01T05:00:01.150Z,6.63
2022-12-01T05:02:27.799Z,6.62
2022-12-01T05:04:54.417Z,6.62
2022-12-01T05:07:21.150Z,6.63
2022-12-01T05:09:48.139Z,6.63
2022-12-01T05:12:14.984Z,6.59
2022-12-01T05:14:42.827Z,6.61
2022-12-01T05:17:09.443Z,6.61
2022-12-01T05:19:36.102Z,6.55
2022-12-01T05:22:02.599Z,6.60
2022-12-01T05:24:29.380Z,6.61
2022-12-01T05:26:55.921Z,6.59
2022-12-01T05:29:22.579Z,6.58
2022-12-01T05:31:50.461Z,6.56
2022-12-01T05:34:17.202Z,6.56
2022-12-01T05:36:43.711Z,6.54
2022-12-01T05:39:10.492Z,6.54
2022-12-01T05:41:37.051Z,6.55
2022-12-01T05:44:03.900Z,6.54
2022-12-01T05:46:30.550Z,6.55
2022-12-01T05:48:58.444Z,6.54
2022-12-01T05:51:25.052Z,6.53
2022-12-01T05:53:51.692Z,6.58
2022-12-01T05:56:18.260Z,6.56
2022-12-01T05:58:45.321Z,6.57
2022-12-01T06:01:11.852Z,6.53
2022-12-01T06:03:38.392Z,6.56
2022-12-01T06:06:06.335Z,6.56
2022-12-01T06:08:33.046Z,6.56
2022-12-01T06:10:59.657Z,6.54
2022-12-01T06:13:26.354Z,6.53
2022-12-01T06:15:58.712Z,6.55
2022-12-01T06:18:25.900Z,6.51
2022-12-01T06:20:52.507Z,6.50
2022-12-01T06:23:20.541Z,6.48
2022-12-01T06:25:47.149Z,6.45
2022-12-01T06:28:13.933Z,6.47
2022-12-01T06:30:40.549Z,6.48
2022-12-01T06:33:07.522Z,6.41
2022-12-01T06:35:34.111Z,6.44
2022-12-01T06:38:00.802Z,6.43
2022-12-01T06:40:28.741Z,6.42
2022-12-01T06:42:55.625Z,6.45
2022-12-01T06:45:22.431Z,6.46
2022-12-01T06:47:53.322Z,6.45
2022-12-01T06:50:20.098Z,6.45
2022-12-01T06:52:46.677Z,6.45
2022-12-01T06:55:14.224Z,6.46
2022-12-01T06:57:42.477Z,6.45
2022-12-01T07:00:10.524Z,6.45
2022-12-01T07:02:37.204Z,6.49
2022-12-01T07:05:04.047Z,6.47
2022-12-01T07:07:30.763Z,6.46
2022-12-01T07:09:57.402Z,6.46
2022-12-01T07:12:24.026Z,6.43
2022-12-01T07:14:52.038Z,6.42
2022-12-01T07:17:18.630Z,6.47
2022-12-01T07:19:45.250Z,6.48
2022-12-01T07:22:11.810Z,6.45
2022-12-01T07:24:38.540Z,6.46
2022-12-01T07:27:05.136Z,6.49
2022-12-01T07:29:31.806Z,6.51
2022-12-01T07:31:59.694Z,6.50
2022-12-01T07:34:26.358Z,6.51
2022-12-01T07:36:52.892Z,6.53
2022-12-01T07:39:19.462Z,6.50
2022-12-01T07:41:45.971Z,6.51
2022-12-01T07:44:12.675Z,6.51
2022-12-01T07:46:39.319Z,6.52
2022-12-01T07:49:08.705Z,6.54
2022-12-01T07:51:35.310Z,6.55
2022-12-01T07:54:04.077Z,6.57
2022-12-01T07:56:30.907Z,6.57
2022-12-01T07:58:57.509Z,6.58
2022-12-01T08:01:24.961Z,6.59
2022-12-01T08:03:53.593Z,6.59
2022-12-01T08:06:22.627Z,6.58
2022-12-01T08:08:49.650Z,6.59
2022-12-01T08:11:19.202Z,6.59
2022-12-01T08:13:46.315Z,6.61
2022-12-01T08:16:14.982Z,6.62
2022-12-01T08:18:43.221Z,6.63
2022-12-01T08:21:11.897Z,6.63
2022-12-01T08:23:40.027Z,6.61
2022-12-01T08:26:10.792Z,6.63
2022-12-01T08:28:37.476Z,6.66
2022-12-01T08:31:09.414Z,6.63
2022-12-01T08:33:36.436Z,6.64
2022-12-01T08:36:03.873Z,6.65
2022-12-01T08:38:30.555Z,6.65
2022-12-01T08:41:01.127Z,6.65
2022-12-01T08:46:22.284Z,6.64
2022-12-01T08:48:49.021Z,6.61
2022-12-01T08:51:17.277Z,6.62
2022-12-01T08:53:46.122Z,6.67
2022-12-01T08:56:17.671Z,6.67
2022-12-01T08:58:44.339Z,6.68
2022-12-01T09:01:13.180Z,6.66
2022-12-01T09:03:41.052Z,6.64
2022-12-01T09:06:09.671Z,6.65
2022-12-01T09:08:37.260Z,6.65
2022-12-01T09:11:06.294Z,6.65
2022-12-01T09:13:35.491Z,6.70
2022-12-01T09:16:04.111Z,6.74
2022-12-01T09:18:31.771Z,6.76
2022-12-01T09:20:58.778Z,6.76
2022-12-01T09:23:26.312Z,6.82
2022-12-01T09:25:53.533Z,6.83
2022-12-01T09:28:20.570Z,6.88
2022-12-01T09:30:48.473Z,6.87
2022-12-01T09:33:15.124Z,6.93
2022-12-01T09:35:41.679Z,7.01
2022-12-01T09:38:08.263Z,7.00
2022-12-01T09:40:36.967Z,7.00
2022-12-01T09:43:06.558Z,7.04
2022-12-01T09:45:39.917Z,7.09
2022-12-01T09:48:17.749Z,7.13
2022-12-01T09:50:44.474Z,7.12
2022-12-01T09:53:17.592Z,7.11
2022-12-01T09:55:44.352Z,7.13
2022-12-01T09:58:17.920Z,7.13
2022-12-01T10:00:46.179Z,7.11
2022-12-01T10:03:24.732Z,7.09
2022-12-01T10:06:26.118Z,7.08
2022-12-01T10:08:47.460Z,7.08
2022-12-01T10:11:28.254Z,7.12
2022-12-01T10:13:54.961Z,7.08
2022-12-01T10:16:27.466Z,7.05
2022-12-01T10:19:01.602Z,7.07
2022-12-01T10:21:40.360Z,7.08
2022-12-01T10:24:23.126Z,7.08
2022-12-01T10:26:55.156Z,7.06
2022-12-01T10:29:33.040Z,7.09
2022-12-01T10:32:05.018Z,7.08
2022-12-01T10:34:36.758Z,7.08
2022-12-01T10:37:03.943Z,7.07
2022-12-01T10:39:36.135Z,7.08
2022-12-01T10:42:06.596Z,7.07
2022-12-01T10:44:34.467Z,7.06
2022-12-01T10:47:02.392Z,7.09
2022-12-01T10:49:38.985Z,7.15
2022-12-01T10:52:06.435Z,7.14
2022-12-01T10:54:36.672Z,7.14
2022-12-01T10:57:05.210Z,7.13
2022-12-01T10:59:35.832Z,7.15
2022-12-01T11:02:05.422Z,7.10
2022-12-01T11:04:40.545Z,7.13
2022-12-01T11:07:07.183Z,7.16
2022-12-01T11:09:33.825Z,7.17
2022-12-01T11:12:02.175Z,7.15
2022-12-01T11:14:36.712Z,7.21
2022-12-01T11:17:16.431Z,7.24
2022-12-01T11:19:44.551Z,7.25
2022-12-01T11:22:21.541Z,7.29
2022-12-01T11:25:01.354Z,7.28
2022-12-01T11:27:31.557Z,7.28
2022-12-01T11:30:02.039Z,7.29
2022-12-01T11:32:30.289Z,7.31
2022-12-01T11:35:00.616Z,7.31
2022-12-01T11:37:31.805Z,7.38
2022-12-01T11:40:07.672Z,7.36
2022-12-01T11:42:35.129Z,7.35
2022-12-01T11:45:08.786Z,7.36
2022-12-01T11:47:35.596Z,7.34
2022-12-01T11:50:24.746Z,7.40
2022-12-01T11:52:51.299Z,7.36
2022-12-01T11:55:22.276Z,7.32
2022-12-01T11:57:52.283Z,7.32
2022-12-01T12:00:21.430Z,7.31
2022-12-01T12:03:08.329Z,7.34
2022-12-01T12:05:52.836Z,7.34
2022-12-01T12:08:35.726Z,7.34
2022-12-01T12:11:08.651Z,7.41
2022-12-01T12:13:53.185Z,7.38
2022-12-01T12:16:32.036Z,7.38
2022-12-01T12:19:28.960Z,7.35
2022-12-01T12:22:20.462Z,7.41
2022-12-01T12:24:59.310Z,7.39
2022-12-01T12:27:39.256Z,7.37
2022-12-01T12:30:17.986Z,7.39
2022-12-01T12:33:08.193Z,7.40
2022-12-01T12:35:42.083Z,7.42
2022-12-01T12:38:30.283Z,7.37
2022-12-01T12:41:07.462Z,7.38
2022-12-01T12:43:50.447Z,7.35
2022-12-01T12:46:21.733Z,7.43
2022-12-01T12:49:19.814Z,7.38
2022-12-01T12:51:54.083Z,7.36
2022-12-01T12:54:28.863Z,7.32
2022-12-01T12:57:02.137Z,7.31
2022-12-01T12:59:34.167Z,7.31
2022-12-01T13:02:08.800Z,7.31
2022-12-01T13:04:42.363Z,7.28
2022-12-01T13:07:25.502Z,7.28
2022-12-01T13:10:00.809Z,7.25
2022-12-01T13:12:30.405Z,7.25
2022-12-01T13:15:02.037Z,7.23
2022-12-01T13:17:33.338Z,7.22
2022-12-01T13:20:00.003Z,7.18
2022-12-01T13:22:31.953Z,7.23
2022-12-01T13:25:00.594Z,7.27
2022-12-01T13:27:30.609Z,7.25
2022-12-01T13:29:57.822Z,7.28
2022-12-01T13:32:30.519Z,7.28
2022-12-01T13:34:58.871Z,7.26
2022-12-01T13:37:27.699Z,7.24
2022-12-01T13:39:55.415Z,7.23
2022-12-01T13:42:25.104Z,7.22
2022-12-01T13:44:54.833Z,7.22
2022-12-01T13:47:37.877Z,7.26
2022-12-01T13:50:55.109Z,7.27
2022-12-01T13:53:28.761Z,7.29
2022-12-01T13:55:58.909Z,7.25
2022-12-01T13:58:42.320Z,7.26
2022-12-01T14:01:55.725Z,7.25
2022-12-01T14:04:29.763Z,7.20
2022-12-01T14:07:33.769Z,7.21
2022-12-01T14:10:27.516Z,7.23
2022-12-01T14:12:57.704Z,7.18
2022-12-01T14:15:39.449Z,7.23
2022-12-01T14:18:19.678Z,7.19
2022-12-01T14:20:48.638Z,7.23
2022-12-01T14:23:23.241Z,7.19
2022-12-01T14:25:59.514Z,7.13
2022-12-01T14:29:08.184Z,7.14
2022-12-01T14:32:17.633Z,7.13
2022-12-01T14:34:46.843Z,7.10
2022-12-01T14:37:17.770Z,7.07
2022-12-01T14:39:48.442Z,7.05
2022-12-01T14:42:21.323Z,7.04
2022-12-01T14:44:49.732Z,7.01
2022-12-01T14:47:21.311Z,6.99
2022-12-01T14:49:55.404Z,7.01
2022-12-01T14:52:32.336Z,7.00
2022-12-01T14:55:00.592Z,6.99
2022-12-01T14:57:30.372Z,6.98
2022-12-01T15:00:08.320Z,6.98
2022-12-01T15:02:40.601Z,6.97
2022-12-01T15:05:12.541Z,6.94
2022-12-01T15:07:40.505Z,6.90
2022-12-01T15:10:17.608Z,6.91
2022-12-01T15:12:44.810Z,6.85
2022-12-01T15:15:17.829Z,6.87
2022-12-01T15:17:48.167Z,6.83
2022-12-01T15:20:30.186Z,6.83
2022-12-01T15:22:57.391Z,6.81
2022-12-01T15:25:26.208Z,6.81
2022-12-01T15:28:02.417Z,6.80
2022-12-01T15:30:29.970Z,6.79
2022-12-01T15:32:57.483Z,6.75
2022-12-01T15:35:24.375Z,6.76
2022-12-01T15:37:53.186Z,6.75
2022-12-01T15:43:16.473Z,6.79
2022-12-01T15:45:49.320Z,6.76
2022-12-01T15:48:18.259Z,6.70
2022-12-01T15:50:58.594Z,6.74
2022-12-01T15:53:29.669Z,6.69
2022-12-01T15:55:59.352Z,6.71
2022-12-01T15:58:28.544Z,6.74
2022-12-01T16:00:59.324Z,6.71
2022-12-01T16:03:26.528Z,6.71
2022-12-01T16:05:53.828Z,6.72
2022-12-01T16:08:24.126Z,6.71
2022-12-01T16:11:14.377Z,6.70
2022-12-01T16:13:47.219Z,6.68
2022-12-01T16:16:27.082Z,6.67
2022-12-01T16:18:56.071Z,6.66
2022-12-01T16:21:23.440Z,6.63
2022-12-01T16:23:59.035Z,6.67
2022-12-01T16:26:27.803Z,6.64
2022-12-01T16:28:55.859Z,6.65
2022-12-01T16:31:23.235Z,6.64
2022-12-01T16:33:59.935Z,6.66
2022-12-01T16:36:27.138Z,6.67
2022-12-01T16:38:53.659Z,6.64
2022-12-01T16:41:38.346Z,6.64
2022-12-01T16:44:27.577Z,6.57
2022-12-01T16:46:52.764Z,6.58
2022-12-01T16:49:19.317Z,6.58
2022-12-01T16:52:11.137Z,6.59
2022-12-01T16:54:32.751Z,6.62
2022-12-01T16:57:00.826Z,6.59
2022-12-01T16:59:27.688Z,6.58
2022-12-01T17:04:49.264Z,6.56
2022-12-01T17:07:16.450Z,6.53
2022-12-01T17:09:43.320Z,6.54
2022-12-01T17:12:11.402Z,6.53
2022-12-01T17:14:38.034Z,6.49
2022-12-01T17:17:04.606Z,6.49
2022-12-01T17:19:31.389Z,6.49
2022-12-01T17:21:58.079Z,6.47
2022-12-01T17:24:24.745Z,6.47
2022-12-01T17:26:51.564Z,6.46
2022-12-01T17:29:19.663Z,6.47
2022-12-01T17:31:46.321Z,6.47
2022-12-01T17:34:12.959Z,6.49
2022-12-01T17:36:39.498Z,6.50
2022-12-01T17:39:07.464Z,6.47
2022-12-01T17:41:34.034Z,6.52
2022-12-01T17:44:02.106Z,6.49
2022-12-01T17:46:31.054Z,6.47
2022-12-01T17:48:58.388Z,6.47
2022-12-01T17:51:25.004Z,6.51
2022-12-01T17:53:52.719Z,6.50
2022-12-01T17:56:19.295Z,6.48
2022-12-01T17:58:46.080Z,6.50
2022-12-01T18:01:14.938Z,6.47
2022-12-01T18:03:43.574Z,6.47
2022-12-01T18:06:11.010Z,6.41
2022-12-01T18:08:38.090Z,6.44
2022-12-01T18:11:07.646Z,6.44
2022-12-01T18:13:35.514Z,6.45
2022-12-01T18:16:06.402Z,6.45
2022-12-01T18:18:33.066Z,6.43
2022-12-01T18:21:04.544Z,6.46
2022-12-01T18:23:31.285Z,6.46
2022-12-01T18:26:02.681Z,6.44
2022-12-01T18:28:36.647Z,6.47
2022-12-01T18:31:04.358Z,6.43
2022-12-01T18:33:31.782Z,6.40
2022-12-01T18:35:58.442Z,6.40
2022-12-01T18:38:26.947Z,6.40
2022-12-01T18:40:57.053Z,6.37
2022-12-01T18:43:23.707Z,6.35
2022-12-01T18:45:50.212Z,6.38
2022-12-01T18:48:17.075Z,6.32
2022-12-01T18:50:43.870Z,6.37
2022-12-01T18:53:10.450Z,6.35
2022-12-01T18:55:38.980Z,6.32
2022-12-01T18:58:05.806Z,6.31
2022-12-01T19:00:32.677Z,6.31
2022-12-01T19:02:59.979Z,6.31
2022-12-01T19:05:26.882Z,6.26
2022-12-01T19:07:53.798Z,6.28
2022-12-01T19:10:20.976Z,6.28
2022-12-01T19:12:48.987Z,6.27
2022-12-01T19:15:17.212Z,6.21
2022-12-01T19:17:43.886Z,6.24
2022-12-01T19:20:11.932Z,6.18
2022-12-01T19:22:38.600Z,6.17
2022-12-01T19:25:05.925Z,6.18
2022-12-01T19:27:34.148Z,6.13
2022-12-01T19:30:02.097Z,6.12
2022-12-01T19:32:30.868Z,6.16
2022-12-01T19:34:57.893Z,6.12
2022-12-01T19:37:24.713Z,6.11
2022-12-01T19:39:51.898Z,6.10
2022-12-01T19:42:18.646Z,6.09
2022-12-01T19:44:45.289Z,6.08
2022-12-01T19:47:15.554Z,6.11
2022-12-01T19:49:45.792Z,6.09
2022-12-01T19:52:12.475Z,6.08
2022-12-01T19:54:48.774Z,6.10
2022-12-01T19:57:22.932Z,6.11
2022-12-01T19:59:49.732Z,6.08
2022-12-01T20:02:18.508Z,6.08
2022-12-01T20:04:45.064Z,6.07
2022-12-01T20:07:12.576Z,6.08
2022-12-01T20:09:39.365Z,6.06
2022-12-01T20:12:06.497Z,6.05
2022-12-01T20:14:33.465Z,6.02
2022-12-01T20:17:00.455Z,6.01
2022-12-01T20:19:28.483Z,5.99
2022-12-01T20:21:55.183Z,5.94
2022-12-01T20:24:21.730Z,5.94
2022-12-01T20:26:51.034Z,5.91
2022-12-01T20:29:23.370Z,5.91
2022-12-01T20:31:51.749Z,5.90
2022-12-01T20:34:20.990Z,5.92
2022-12-01T20:37:04.222Z,5.91
2022-12-01T20:39:37.715Z,5.91
2022-12-01T20:42:17.021Z,5.92
2022-12-01T20:44:50.834Z,5.96
2022-12-01T20:47:17.737Z,5.95
2022-12-01T20:49:44.734Z,5.97
2022-12-01T20:52:12.836Z,5.94
2022-12-01T20:54:39.534Z,5.96
2022-12-01T20:57:06.306Z,5.94
2022-12-01T20:59:35.107Z,5.95
2022-12-01T21:02:02.146Z,5.96
2022-12-01T21:04:28.792Z,5.94
2022-12-01T21:06:56.481Z,5.95
2022-12-01T21:09:24.857Z,5.93
2022-12-01T21:11:51.532Z,5.92
2022-12-01T21:14:24.273Z,5.92
2022-12-01T21:16:52.131Z,5.97
2022-12-01T21:19:23.994Z,5.96
2022-12-01T21:21:50.652Z,5.98
2022-12-01T21:24:18.792Z,5.94
2022-12-01T21:26:49.179Z,5.99
2022-12-01T21:29:19.456Z,5.97
2022-12-01T21:31:48.016Z,6.00
2022-12-01T21:34:18.644Z,6.00
2022-12-01T21:36:47.424Z,6.00
2022-12-01T21:39:16.263Z,6.00
2022-12-01T21:41:42.869Z,6.02
2022-12-01T21:44:16.152Z,6.01
2022-12-01T21:46:43.526Z,6.01
2022-12-01T21:49:17.631Z,6.03
2022-12-01T21:51:46.939Z,6.02
2022-12-01T21:54:17.008Z,5.99
2022-12-01T21:56:43.966Z,5.99
2022-12-01T21:59:19.377Z,6.01
2022-12-01T22:01:47.645Z,5.98
2022-12-01T22:04:19.908Z,6.00
2022-12-01T22:06:48.753Z,5.96
2022-12-01T22:09:22.612Z,6.00
2022-12-01T22:11:52.576Z,5.92
2022-12-01T22:14:22.642Z,5.94
2022-12-01T22:16:54.277Z,5.86
2022-12-01T22:19:26.235Z,5.85
2022-12-01T22:21:59.048Z,5.85
2022-12-01T22:24:34.280Z,5.89
2022-12-01T22:27:16.783Z,5.87
2022-12-01T22:29:46.819Z,5.84
2022-12-01T22:32:43.862Z,5.84
2022-12-01T22:35:36.199Z,5.85
2022-12-01T22:38:32.112Z,5.81
2022-12-01T22:41:02.495Z,5.82
2022-12-01T22:43:37.658Z,5.80
2022-12-01T22:46:29.037Z,5.80
2022-12-01T22:48:57.578Z,5.80
2022-12-01T22:51:36.853Z,5.75
2022-12-01T22:54:22.754Z,5.79
2022-12-01T22:56:50.881Z,5.75
2022-12-01T22:59:20.509Z,5.77
2022-12-01T23:01:52.922Z,5.72
2022-12-01T23:04:25.413Z,5.74
2022-12-01T23:07:06.811Z,5.75
2022-12-01T23:09:37.365Z,5.65
2022-12-01T23:12:32.306Z,5.73
2022-12-01T23:15:07.151Z,5.73
2022-12-01T23:17:35.191Z,5.66
2022-12-01T23:20:24.492Z,5.65
2022-12-01T23:22:53.480Z,5.62
2022-12-01T23:25:20.519Z,5.59
2022-12-01T23:27:48.881Z,5.61
2022-12-01T23:30:17.180Z,5.58
2022-12-01T23:32:47.829Z,5.59
2022-12-01T23:35:16.546Z,5.52
2022-12-01T23:37:46.475Z,5.50
2022-12-01T23:40:19.161Z,5.48
2022-12-01T23:42:45.655Z,5.47
2022-12-01T23:45:16.512Z,5.42
2022-12-01T23:47:43.242Z,5.32
2022-12-01T23:50:18.870Z,5.26
2022-12-01T23:52:45.593Z,5.30
2022-12-01T23:55:19.858Z,5.23
2022-12-01T23:57:46.774Z,5.22
